sensor_id;sensor_type;location;lat;lon;timestamp;P1;durP1;ratioP1;P2;durP2;ratioP2
5418;SDS011;2732;52.092;11.556;2023-04-12T00:01:31;4.83;;;2.00;;
5418;SDS011;2732;52.092;11.556;2023-04-12T00:06:31;4.53;;;2.07;;
5418;SDS011;2732;52.092;11.556;2023-04-12T00:11:32;5.00;;;2.60;;
5418;SDS011;2732;52.092;11.556;2023-04-12T00:16:34;2.20;;;2.00;;
5418;SDS011;2732;52.092;11.556;2023-04-12T00:21:36;2.10;;;1.87;;
5418;SDS011;2732;52.092;11.556;2023-04-12T00:26:36;2.60;;;1.90;;
5418;SDS011;2732;52.092;11.556;2023-04-12T00:31:37;2.30;;;2.10;;
5418;SDS011;2732;52.092;11.556;2023-04-12T00:36:37;7.73;;;2.40;;
5418;SDS011;2732;52.092;11.556;2023-04-12T00:41:38;2.73;;;2.30;;
5418;SDS011;2732;52.092;11.556;2023-04-12T00:46:38;4.57;;;2.77;;
5418;SDS011;2732;52.092;11.556;2023-04-12T00:51:40;3.40;;;2.73;;
5418;SDS011;2732;52.092;11.556;2023-04-12T00:56:41;2.73;;;2.17;;
5418;SDS011;2732;52.092;11.556;2023-04-12T01:01:43;4.60;;;2.67;;
5418;SDS011;2732;52.092;11.556;2023-04-12T01:12:49;4.40;;;2.83;;
5418;SDS011;2732;52.092;11.556;2023-04-12T01:18:20;8.73;;;2.80;;
5418;SDS011;2732;52.092;11.556;2023-04-12T01:23:29;3.00;;;2.47;;
5418;SDS011;2732;52.092;11.556;2023-04-12T01:28:47;2.00;;;1.90;;
5418;SDS011;2732;52.092;11.556;2023-04-12T01:33:51;5.30;;;2.03;;
5418;SDS011;2732;52.092;11.556;2023-04-12T01:38:53;2.50;;;2.10;;
5418;SDS011;2732;52.092;11.556;2023-04-12T01:43:55;3.90;;;2.03;;
5418;SDS011;2732;52.092;11.556;2023-04-12T01:48:56;3.33;;;2.60;;
5418;SDS011;2732;52.092;11.556;2023-04-12T01:54:32;6.50;;;2.60;;
5418;SDS011;2732;52.092;11.556;2023-04-12T01:59:30;3.90;;;2.53;;
5418;SDS011;2732;52.092;11.556;2023-04-12T02:04:37;7.03;;;2.47;;
5418;SDS011;2732;52.092;11.556;2023-04-12T02:09:38;8.63;;;2.97;;
5418;SDS011;2732;52.092;11.556;2023-04-12T02:14:39;4.13;;;2.80;;
5418;SDS011;2732;52.092;11.556;2023-04-12T02:19:40;6.03;;;2.87;;
5418;SDS011;2732;52.092;11.556;2023-04-12T02:24:40;6.90;;;2.83;;
5418;SDS011;2732;52.092;11.556;2023-04-12T02:29:41;10.00;;;3.07;;
5418;SDS011;2732;52.092;11.556;2023-04-12T02:34:42;7.67;;;2.87;;
5418;SDS011;2732;52.092;11.556;2023-04-12T02:39:43;4.30;;;3.60;;
5418;SDS011;2732;52.092;11.556;2023-04-12T02:44:43;6.70;;;3.97;;
5418;SDS011;2732;52.092;11.556;2023-04-12T02:49:46;5.07;;;3.20;;
5418;SDS011;2732;52.092;11.556;2023-04-12T02:54:50;4.13;;;3.20;;
5418;SDS011;2732;52.092;11.556;2023-04-12T02:59:51;5.90;;;3.97;;
5418;SDS011;2732;52.092;11.556;2023-04-12T03:04:53;8.57;;;4.00;;
5418;SDS011;2732;52.092;11.556;2023-04-12T03:09:55;9.90;;;3.70;;
5418;SDS011;2732;52.092;11.556;2023-04-12T03:14:56;5.50;;;4.00;;
5418;SDS011;2732;52.092;11.556;2023-04-12T03:20:02;4.23;;;3.00;;
5418;SDS011;2732;52.092;11.556;2023-04-12T03:25:08;3.40;;;3.10;;
5418;SDS011;2732;52.092;11.556;2023-04-12T03:30:10;10.57;;;3.10;;
5418;SDS011;2732;52.092;11.556;2023-04-12T03:35:11;3.40;;;3.20;;
5418;SDS011;2732;52.092;11.556;2023-04-12T03:40:12;4.20;;;3.80;;
5418;SDS011;2732;52.092;11.556;2023-04-12T03:45:12;7.50;;;3.80;;
5418;SDS011;2732;52.092;11.556;2023-04-12T03:50:13;3.90;;;3.47;;
5418;SDS011;2732;52.092;11.556;2023-04-12T03:55:14;4.30;;;3.90;;
5418;SDS011;2732;52.092;11.556;2023-04-12T04:00:17;7.10;;;5.47;;
5418;SDS011;2732;52.092;11.556;2023-04-12T04:05:17;5.60;;;3.70;;
5418;SDS011;2732;52.092;11.556;2023-04-12T04:10:18;7.83;;;3.87;;
5418;SDS011;2732;52.092;11.556;2023-04-12T04:15:19;5.63;;;4.20;;
5418;SDS011;2732;52.092;11.556;2023-04-12T04:20:20;8.60;;;4.60;;
5418;SDS011;2732;52.092;11.556;2023-04-12T04:25:20;5.13;;;4.63;;
5418;SDS011;2732;52.092;11.556;2023-04-12T04:30:28;5.97;;;4.90;;
5418;SDS011;2732;52.092;11.556;2023-04-12T04:35:29;4.70;;;3.97;;
5418;SDS011;2732;52.092;11.556;2023-04-12T04:40:31;8.67;;;5.10;;
5418;SDS011;2732;52.092;11.556;2023-04-12T04:45:31;4.73;;;4.20;;
5418;SDS011;2732;52.092;11.556;2023-04-12T04:50:32;7.87;;;4.87;;
5418;SDS011;2732;52.092;11.556;2023-04-12T04:55:33;7.00;;;4.97;;
5418;SDS011;2732;52.092;11.556;2023-04-12T05:00:33;8.47;;;6.00;;
5418;SDS011;2732;52.092;11.556;2023-04-12T05:05:35;7.30;;;4.83;;
5418;SDS011;2732;52.092;11.556;2023-04-12T05:10:35;10.83;;;5.60;;
5418;SDS011;2732;52.092;11.556;2023-04-12T05:15:39;8.53;;;4.70;;
5418;SDS011;2732;52.092;11.556;2023-04-12T05:20:40;8.20;;;5.30;;
5418;SDS011;2732;52.092;11.556;2023-04-12T05:25:44;7.07;;;5.80;;
5418;SDS011;2732;52.092;11.556;2023-04-12T05:30:47;6.90;;;5.07;;
5418;SDS011;2732;52.092;11.556;2023-04-12T05:35:47;5.30;;;4.50;;
5418;SDS011;2732;52.092;11.556;2023-04-12T05:40:48;6.93;;;4.33;;
5418;SDS011;2732;52.092;11.556;2023-04-12T05:45:49;2.97;;;2.67;;
5418;SDS011;2732;52.092;11.556;2023-04-12T05:50:50;3.93;;;3.60;;
5418;SDS011;2732;52.092;11.556;2023-04-12T05:55:52;3.47;;;2.93;;
5418;SDS011;2732;52.092;11.556;2023-04-12T06:00:53;7.10;;;3.47;;
5418;SDS011;2732;52.092;11.556;2023-04-12T06:05:54;3.10;;;2.87;;
5418;SDS011;2732;52.092;11.556;2023-04-12T06:10:55;6.00;;;4.13;;
5418;SDS011;2732;52.092;11.556;2023-04-12T06:15:55;3.33;;;2.53;;
5418;SDS011;2732;52.092;11.556;2023-04-12T06:20:56;6.23;;;3.57;;
5418;SDS011;2732;52.092;11.556;2023-04-12T06:25:56;3.90;;;3.10;;
5418;SDS011;2732;52.092;11.556;2023-04-12T06:30:57;4.60;;;2.87;;
5418;SDS011;2732;52.092;11.556;2023-04-12T06:35:58;10.40;;;3.03;;
5418;SDS011;2732;52.092;11.556;2023-04-12T06:40:59;3.80;;;3.17;;
5418;SDS011;2732;52.092;11.556;2023-04-12T06:46:00;7.47;;;2.00;;
5418;SDS011;2732;52.092;11.556;2023-04-12T06:51:04;3.70;;;2.67;;
5418;SDS011;2732;52.092;11.556;2023-04-12T06:56:04;1.77;;;1.73;;
5418;SDS011;2732;52.092;11.556;2023-04-12T07:01:06;1.80;;;1.53;;
5418;SDS011;2732;52.092;11.556;2023-04-12T07:06:08;2.77;;;1.40;;
5418;SDS011;2732;52.092;11.556;2023-04-12T07:11:10;9.53;;;3.20;;
5418;SDS011;2732;52.092;11.556;2023-04-12T07:16:11;1.73;;;1.10;;
5418;SDS011;2732;52.092;11.556;2023-04-12T07:21:11;2.20;;;1.67;;
5418;SDS011;2732;52.092;11.556;2023-04-12T07:26:13;6.73;;;2.20;;
5418;SDS011;2732;52.092;11.556;2023-04-12T07:31:13;7.60;;;1.93;;
5418;SDS011;2732;52.092;11.556;2023-04-12T07:36:15;9.20;;;2.20;;
5418;SDS011;2732;52.092;11.556;2023-04-12T07:41:20;2.90;;;2.30;;
5418;SDS011;2732;52.092;11.556;2023-04-12T07:46:21;3.03;;;2.33;;
5418;SDS011;2732;52.092;11.556;2023-04-12T07:51:22;2.87;;;2.27;;
5418;SDS011;2732;52.092;11.556;2023-04-12T07:56:22;3.20;;;2.10;;
5418;SDS011;2732;52.092;11.556;2023-04-12T08:01:23;3.67;;;2.23;;
5418;SDS011;2732;52.092;11.556;2023-04-12T08:06:23;2.10;;;2.00;;
5418;SDS011;2732;52.092;11.556;2023-04-12T08:11:25;7.30;;;2.03;;
5418;SDS011;2732;52.092;11.556;2023-04-12T08:16:27;2.67;;;2.00;;
5418;SDS011;2732;52.092;11.556;2023-04-12T08:21:27;4.80;;;2.00;;
5418;SDS011;2732;52.092;11.556;2023-04-12T08:26:29;5.80;;;2.93;;
5418;SDS011;2732;52.092;11.556;2023-04-12T08:31:29;1.63;;;1.20;;
5418;SDS011;2732;52.092;11.556;2023-04-12T08:36:30;5.90;;;2.20;;
5418;SDS011;2732;52.092;11.556;2023-04-12T08:41:31;3.03;;;1.83;;
5418;SDS011;2732;52.092;11.556;2023-04-12T08:46:34;2.20;;;1.63;;
5418;SDS011;2732;52.092;11.556;2023-04-12T08:51:36;6.10;;;1.97;;
5418;SDS011;2732;52.092;11.556;2023-04-12T08:56:37;1.93;;;1.47;;
5418;SDS011;2732;52.092;11.556;2023-04-12T09:01:42;5.13;;;2.10;;
5418;SDS011;2732;52.092;11.556;2023-04-12T09:06:43;3.90;;;1.47;;
5418;SDS011;2732;52.092;11.556;2023-04-12T09:11:44;9.80;;;2.10;;
5418;SDS011;2732;52.092;11.556;2023-04-12T09:16:46;5.60;;;2.10;;
5418;SDS011;2732;52.092;11.556;2023-04-12T09:21:52;2.90;;;1.93;;
5418;SDS011;2732;52.092;11.556;2023-04-12T09:32:06;3.93;;;2.10;;
5418;SDS011;2732;52.092;11.556;2023-04-12T09:37:12;4.50;;;2.13;;
5418;SDS011;2732;52.092;11.556;2023-04-12T09:42:15;2.00;;;1.40;;
5418;SDS011;2732;52.092;11.556;2023-04-12T09:47:16;8.77;;;2.30;;
5418;SDS011;2732;52.092;11.556;2023-04-12T09:52:16;3.20;;;1.73;;
5418;SDS011;2732;52.092;11.556;2023-04-12T09:57:17;1.60;;;1.03;;
5418;SDS011;2732;52.092;11.556;2023-04-12T10:02:22;1.60;;;1.33;;
5418;SDS011;2732;52.092;11.556;2023-04-12T10:07:27;4.93;;;1.83;;
5418;SDS011;2732;52.092;11.556;2023-04-12T10:12:28;2.60;;;1.60;;
5418;SDS011;2732;52.092;11.556;2023-04-12T10:17:30;9.57;;;1.50;;
5418;SDS011;2732;52.092;11.556;2023-04-12T10:22:35;1.30;;;1.17;;
5418;SDS011;2732;52.092;11.556;2023-04-12T10:27:44;3.37;;;1.80;;
5418;SDS011;2732;52.092;11.556;2023-04-12T10:33:32;2.57;;;1.30;;
5418;SDS011;2732;52.092;11.556;2023-04-12T10:38:09;1.30;;;0.97;;
5418;SDS011;2732;52.092;11.556;2023-04-12T10:53:35;1.30;;;0.90;;
5418;SDS011;2732;52.092;11.556;2023-04-12T11:14:37;2.67;;;1.07;;
5418;SDS011;2732;52.092;11.556;2023-04-12T11:19:50;3.40;;;1.53;;
5418;SDS011;2732;52.092;11.556;2023-04-12T11:25:00;4.03;;;1.80;;
5418;SDS011;2732;52.092;11.556;2023-04-12T11:30:02;1.80;;;1.60;;
5418;SDS011;2732;52.092;11.556;2023-04-12T11:35:03;2.93;;;1.20;;
5418;SDS011;2732;52.092;11.556;2023-04-12T11:40:05;4.93;;;1.87;;
5418;SDS011;2732;52.092;11.556;2023-04-12T11:45:08;5.70;;;1.63;;
5418;SDS011;2732;52.092;11.556;2023-04-12T11:50:10;2.40;;;1.50;;
5418;SDS011;2732;52.092;11.556;2023-04-12T11:55:11;1.30;;;1.27;;
5418;SDS011;2732;52.092;11.556;2023-04-12T12:00:12;4.63;;;1.77;;
5418;SDS011;2732;52.092;11.556;2023-04-12T12:05:14;3.93;;;1.60;;
5418;SDS011;2732;52.092;11.556;2023-04-12T12:10:15;9.43;;;1.70;;
5418;SDS011;2732;52.092;11.556;2023-04-12T12:15:17;2.50;;;1.33;;
5418;SDS011;2732;52.092;11.556;2023-04-12T12:20:18;3.30;;;1.80;;
5418;SDS011;2732;52.092;11.556;2023-04-12T12:25:21;3.17;;;1.70;;
5418;SDS011;2732;52.092;11.556;2023-04-12T12:30:22;3.40;;;1.80;;
5418;SDS011;2732;52.092;11.556;2023-04-12T12:35:23;5.27;;;1.90;;
5418;SDS011;2732;52.092;11.556;2023-04-12T12:40:29;5.93;;;1.90;;
5418;SDS011;2732;52.092;11.556;2023-04-12T12:45:33;5.33;;;1.90;;
5418;SDS011;2732;52.092;11.556;2023-04-12T12:50:35;4.50;;;2.30;;
5418;SDS011;2732;52.092;11.556;2023-04-12T12:55:35;6.13;;;2.30;;
5418;SDS011;2732;52.092;11.556;2023-04-12T13:00:36;3.57;;;2.50;;
5418;SDS011;2732;52.092;11.556;2023-04-12T13:05:37;2.53;;;2.10;;
5418;SDS011;2732;52.092;11.556;2023-04-12T13:10:37;4.80;;;2.30;;
5418;SDS011;2732;52.092;11.556;2023-04-12T13:15:38;5.50;;;2.00;;
5418;SDS011;2732;52.092;11.556;2023-04-12T13:20:39;3.83;;;2.43;;
5418;SDS011;2732;52.092;11.556;2023-04-12T13:25:40;4.90;;;2.40;;
5418;SDS011;2732;52.092;11.556;2023-04-12T13:30:41;2.07;;;1.77;;
5418;SDS011;2732;52.092;11.556;2023-04-12T13:35:42;1.70;;;1.60;;
5418;SDS011;2732;52.092;11.556;2023-04-12T13:40:44;4.20;;;2.20;;
5418;SDS011;2732;52.092;11.556;2023-04-12T13:45:44;2.07;;;1.87;;
5418;SDS011;2732;52.092;11.556;2023-04-12T13:50:45;2.37;;;1.93;;
5418;SDS011;2732;52.092;11.556;2023-04-12T13:55:46;3.63;;;1.43;;
5418;SDS011;2732;52.092;11.556;2023-04-12T14:00:49;2.80;;;2.17;;
5418;SDS011;2732;52.092;11.556;2023-04-12T14:05:52;2.50;;;1.73;;
5418;SDS011;2732;52.092;11.556;2023-04-12T14:10:53;4.50;;;2.20;;
5418;SDS011;2732;52.092;11.556;2023-04-12T14:15:54;2.53;;;2.43;;
5418;SDS011;2732;52.092;11.556;2023-04-12T14:20:57;4.00;;;2.27;;
5418;SDS011;2732;52.092;11.556;2023-04-12T14:25:58;8.10;;;2.47;;
5418;SDS011;2732;52.092;11.556;2023-04-12T14:30:58;2.70;;;2.30;;
5418;SDS011;2732;52.092;11.556;2023-04-12T14:36:00;2.53;;;2.13;;
5418;SDS011;2732;52.092;11.556;2023-04-12T14:41:07;2.80;;;2.53;;
5418;SDS011;2732;52.092;11.556;2023-04-12T14:46:10;4.83;;;2.50;;
5418;SDS011;2732;52.092;11.556;2023-04-12T14:51:11;6.47;;;2.40;;
5418;SDS011;2732;52.092;11.556;2023-04-12T14:56:18;2.20;;;2.10;;
5418;SDS011;2732;52.092;11.556;2023-04-12T15:01:25;2.20;;;1.70;;
5418;SDS011;2732;52.092;11.556;2023-04-12T15:06:27;4.80;;;4.40;;
5418;SDS011;2732;52.092;11.556;2023-04-12T15:11:29;2.00;;;1.80;;
5418;SDS011;2732;52.092;11.556;2023-04-12T15:16:34;2.40;;;2.30;;
5418;SDS011;2732;52.092;11.556;2023-04-12T15:21:35;2.03;;;1.80;;
5418;SDS011;2732;52.092;11.556;2023-04-12T15:26:35;2.33;;;2.13;;
5418;SDS011;2732;52.092;11.556;2023-04-12T15:31:36;4.10;;;2.17;;
5418;SDS011;2732;52.092;11.556;2023-04-12T15:36:36;2.33;;;1.73;;
5418;SDS011;2732;52.092;11.556;2023-04-12T15:41:38;1.70;;;1.60;;
5418;SDS011;2732;52.092;11.556;2023-04-12T15:46:44;1.50;;;1.50;;
5418;SDS011;2732;52.092;11.556;2023-04-12T15:51:45;4.00;;;2.30;;
5418;SDS011;2732;52.092;11.556;2023-04-12T15:56:46;4.47;;;3.50;;
5418;SDS011;2732;52.092;11.556;2023-04-12T16:01:48;1.90;;;1.80;;
5418;SDS011;2732;52.092;11.556;2023-04-12T16:06:48;2.20;;;2.10;;
5418;SDS011;2732;52.092;11.556;2023-04-12T16:11:49;4.00;;;2.10;;
5418;SDS011;2732;52.092;11.556;2023-04-12T16:16:50;2.30;;;2.10;;
5418;SDS011;2732;52.092;11.556;2023-04-12T16:21:50;2.73;;;2.50;;
5418;SDS011;2732;52.092;11.556;2023-04-12T16:26:51;3.13;;;2.70;;
5418;SDS011;2732;52.092;11.556;2023-04-12T16:31:51;1.90;;;1.80;;
5418;SDS011;2732;52.092;11.556;2023-04-12T16:36:52;2.33;;;2.03;;
5418;SDS011;2732;52.092;11.556;2023-04-12T16:41:53;3.10;;;2.00;;
5418;SDS011;2732;52.092;11.556;2023-04-12T16:46:53;1.93;;;1.83;;
5418;SDS011;2732;52.092;11.556;2023-04-12T16:51:54;3.33;;;2.80;;
5418;SDS011;2732;52.092;11.556;2023-04-12T16:56:55;1.90;;;1.80;;
5418;SDS011;2732;52.092;11.556;2023-04-12T17:01:56;2.27;;;2.03;;
5418;SDS011;2732;52.092;11.556;2023-04-12T17:06:59;1.63;;;1.53;;
5418;SDS011;2732;52.092;11.556;2023-04-12T17:12:01;2.37;;;2.17;;
5418;SDS011;2732;52.092;11.556;2023-04-12T17:17:01;2.57;;;2.37;;
5418;SDS011;2732;52.092;11.556;2023-04-12T17:22:02;3.93;;;2.60;;
5418;SDS011;2732;52.092;11.556;2023-04-12T17:27:02;3.10;;;2.30;;
5418;SDS011;2732;52.092;11.556;2023-04-12T17:32:04;2.30;;;2.20;;
5418;SDS011;2732;52.092;11.556;2023-04-12T17:37:05;2.60;;;1.33;;
5418;SDS011;2732;52.092;11.556;2023-04-12T17:42:07;1.93;;;1.93;;
5418;SDS011;2732;52.092;11.556;2023-04-12T17:47:07;1.90;;;1.80;;
5418;SDS011;2732;52.092;11.556;2023-04-12T17:52:08;3.97;;;2.23;;
5418;SDS011;2732;52.092;11.556;2023-04-12T17:57:09;2.70;;;2.50;;
5418;SDS011;2732;52.092;11.556;2023-04-12T18:02:10;3.03;;;2.80;;
5418;SDS011;2732;52.092;11.556;2023-04-12T18:07:11;2.40;;;2.30;;
5418;SDS011;2732;52.092;11.556;2023-04-12T18:12:11;3.60;;;2.20;;
5418;SDS011;2732;52.092;11.556;2023-04-12T18:17:12;2.30;;;2.20;;
5418;SDS011;2732;52.092;11.556;2023-04-12T18:22:13;2.50;;;2.30;;
5418;SDS011;2732;52.092;11.556;2023-04-12T18:27:13;2.90;;;2.70;;
5418;SDS011;2732;52.092;11.556;2023-04-12T18:32:14;2.67;;;2.47;;
5418;SDS011;2732;52.092;11.556;2023-04-12T18:37:14;4.83;;;2.50;;
5418;SDS011;2732;52.092;11.556;2023-04-12T18:42:15;2.80;;;2.60;;
5418;SDS011;2732;52.092;11.556;2023-04-12T18:47:16;3.00;;;2.80;;
5418;SDS011;2732;52.092;11.556;2023-04-12T18:52:17;2.80;;;2.60;;
5418;SDS011;2732;52.092;11.556;2023-04-12T18:57:17;4.33;;;3.97;;
5418;SDS011;2732;52.092;11.556;2023-04-12T19:02:18;6.63;;;3.60;;
5418;SDS011;2732;52.092;11.556;2023-04-12T19:07:19;3.53;;;3.07;;
5418;SDS011;2732;52.092;11.556;2023-04-12T19:12:20;3.20;;;2.90;;
5418;SDS011;2732;52.092;11.556;2023-04-12T19:17:20;3.10;;;2.80;;
5418;SDS011;2732;52.092;11.556;2023-04-12T19:22:26;4.10;;;3.70;;
5418;SDS011;2732;52.092;11.556;2023-04-12T19:27:27;5.23;;;4.60;;
5418;SDS011;2732;52.092;11.556;2023-04-12T19:32:28;4.60;;;4.20;;
5418;SDS011;2732;52.092;11.556;2023-04-12T19:37:29;5.03;;;3.87;;
5418;SDS011;2732;52.092;11.556;2023-04-12T19:42:32;5.13;;;4.10;;
5418;SDS011;2732;52.092;11.556;2023-04-12T19:47:33;4.50;;;4.10;;
5418;SDS011;2732;52.092;11.556;2023-04-12T19:52:34;4.27;;;3.83;;
5418;SDS011;2732;52.092;11.556;2023-04-12T19:57:34;6.03;;;4.47;;
5418;SDS011;2732;52.092;11.556;2023-04-12T20:02:37;4.83;;;4.23;;
5418;SDS011;2732;52.092;11.556;2023-04-12T20:07:38;4.53;;;4.20;;
5418;SDS011;2732;52.092;11.556;2023-04-12T20:12:39;6.03;;;4.73;;
5418;SDS011;2732;52.092;11.556;2023-04-12T20:17:41;7.47;;;4.97;;
5418;SDS011;2732;52.092;11.556;2023-04-12T20:22:43;4.87;;;4.47;;
5418;SDS011;2732;52.092;11.556;2023-04-12T20:27:45;6.63;;;5.93;;
5418;SDS011;2732;52.092;11.556;2023-04-12T20:32:50;9.93;;;6.90;;
5418;SDS011;2732;52.092;11.556;2023-04-12T20:37:53;6.50;;;5.83;;
5418;SDS011;2732;52.092;11.556;2023-04-12T20:42:55;5.30;;;4.70;;
5418;SDS011;2732;52.092;11.556;2023-04-12T20:47:56;3.53;;;3.33;;
5418;SDS011;2732;52.092;11.556;2023-04-12T20:52:56;4.47;;;3.50;;
5418;SDS011;2732;52.092;11.556;2023-04-12T20:57:58;4.47;;;4.07;;
5418;SDS011;2732;52.092;11.556;2023-04-12T21:02:59;3.00;;;2.90;;
5418;SDS011;2732;52.092;11.556;2023-04-12T21:08:03;1.83;;;1.73;;
5418;SDS011;2732;52.092;11.556;2023-04-12T21:13:07;1.60;;;1.50;;
5418;SDS011;2732;52.092;11.556;2023-04-12T21:18:10;1.93;;;1.30;;
5418;SDS011;2732;52.092;11.556;2023-04-12T21:23:12;2.43;;;1.00;;
5418;SDS011;2732;52.092;11.556;2023-04-12T21:28:15;1.40;;;1.30;;
5418;SDS011;2732;52.092;11.556;2023-04-12T21:33:16;2.53;;;2.33;;
5418;SDS011;2732;52.092;11.556;2023-04-12T21:38:23;2.67;;;2.57;;
5418;SDS011;2732;52.092;11.556;2023-04-12T21:43:24;2.80;;;2.53;;
5418;SDS011;2732;52.092;11.556;2023-04-12T21:48:24;5.50;;;3.23;;
5418;SDS011;2732;52.092;11.556;2023-04-12T21:53:25;3.53;;;3.27;;
5418;SDS011;2732;52.092;11.556;2023-04-12T21:58:26;1.63;;;1.43;;
5418;SDS011;2732;52.092;11.556;2023-04-12T22:03:32;1.00;;;1.00;;
5418;SDS011;2732;52.092;11.556;2023-04-12T22:08:32;3.40;;;1.20;;
5418;SDS011;2732;52.092;11.556;2023-04-12T22:13:33;1.43;;;1.33;;
5418;SDS011;2732;52.092;11.556;2023-04-12T22:18:33;3.57;;;1.20;;
5418;SDS011;2732;52.092;11.556;2023-04-12T22:23:34;4.90;;;1.93;;
5418;SDS011;2732;52.092;11.556;2023-04-12T22:28:37;2.97;;;1.80;;
5418;SDS011;2732;52.092;11.556;2023-04-12T22:33:38;7.63;;;2.63;;
5418;SDS011;2732;52.092;11.556;2023-04-12T22:38:39;6.00;;;2.60;;
5418;SDS011;2732;52.092;11.556;2023-04-12T22:43:40;2.60;;;1.90;;
5418;SDS011;2732;52.092;11.556;2023-04-12T22:48:41;8.33;;;1.93;;
5418;SDS011;2732;52.092;11.556;2023-04-12T22:53:43;7.20;;;2.77;;
5418;SDS011;2732;52.092;11.556;2023-04-12T22:58:44;4.00;;;2.40;;
5418;SDS011;2732;52.092;11.556;2023-04-12T23:03:45;2.73;;;1.97;;
5418;SDS011;2732;52.092;11.556;2023-04-12T23:08:45;6.87;;;2.40;;
5418;SDS011;2732;52.092;11.556;2023-04-12T23:13:49;6.33;;;2.43;;
5418;SDS011;2732;52.092;11.556;2023-04-12T23:18:49;6.00;;;2.40;;
5418;SDS011;2732;52.092;11.556;2023-04-12T23:23:50;3.67;;;2.90;;
5418;SDS011;2732;52.092;11.556;2023-04-12T23:28:51;2.73;;;2.43;;
5418;SDS011;2732;52.092;11.556;2023-04-12T23:33:52;6.47;;;2.47;;
5418;SDS011;2732;52.092;11.556;2023-04-12T23:38:53;3.47;;;2.60;;
5418;SDS011;2732;52.092;11.556;2023-04-12T23:43:54;5.87;;;3.70;;
5418;SDS011;2732;52.092;11.556;2023-04-12T23:48:55;5.27;;;2.90;;
5418;SDS011;2732;52.092;11.556;2023-04-12T23:53:56;2.90;;;2.37;;
5418;SDS011;2732;52.092;11.556;2023-04-12T23:58:56;7.37;;;2.70;;
